Terminal Aerodrome Forecast
Issued by NWS Wilmington, OH

Current Version | Previous Version | Text Only | Print | Product List | Glossary Off
Versions: 1 2 3 4 5 6 7 8 9 10 11 12 13 14 15 16 17 18 19 20 21 22 23 24 25 26 27 28 29

000
FTUS41 KILN 200800 AAA
TAFCMH
TAF AMD
KCMH 200853Z 2009/2106 19012G22KT P6SM FEW022 BKN035
     FM201300 19014G26KT P6SM VCSH OVC028
      TEMPO 2013/2015 4SM -SHRA BKN020
     FM202000 24016G28KT P6SM VCSH OVC035
     FM210200 26012G20KT P6SM SCT035=

USA.gov is the U.S. government's official web portal to all federal, state and local government web resources and services.